Time;durP1;ratioP1;P1;durP2;ratioP2;P2;SDS_P1;SDS_P2;PMS_P1;PMS_P2;Temp;Humidity;BMP_temperature;BMP_pressure;BME280_temperature;BME280_humidity;BME280_pressure;Samples;Min_cycle;Max_cycle;Signal;HPM_P1;HPM_P2
2023/11/27 00:00:12;;;;;;;6.30;4.47;;;-0.20;88.70;;;;;;5060079;28;20381;-68
2023/11/27 00:02:38;;;;;;;6.45;4.15;;;-0.30;98.30;;;;;;5060051;28;20072;-68
2023/11/27 00:05:04;;;;;;;8.35;5.63;;;-0.30;98.30;;;;;;5058826;28;20021;-68
2023/11/27 00:07:30;;;;;;;7.78;5.00;;;;;;;;;;5080232;28;20028;-68
2023/11/27 00:09:56;;;;;;;7.95;4.85;;;-0.20;98.10;;;;;;5083759;28;20224;-68
2023/11/27 00:12:22;;;;;;;6.78;4.68;;;;;;;;;;5083677;28;20021;-68
2023/11/27 00:14:48;;;;;;;7.80;5.20;;;-0.10;97.90;;;;;;5083698;28;20021;-69
2023/11/27 00:17:13;;;;;;;13.55;5.28;;;-0.20;98.30;;;;;;5083661;28;20059;-69
2023/11/27 00:19:39;;;;;;;8.13;4.88;;;-0.30;92.10;;;;;;5083454;28;20035;-69
2023/11/27 00:22:05;;;;;;;7.80;4.97;;;;;;;;;;5083597;28;20054;-69
2023/11/27 00:24:31;;;;;;;10.50;5.72;;;;;;;;;;5083316;28;20325;-69
2023/11/27 00:26:56;;;;;;;7.50;4.47;;;-0.20;98.60;;;;;;5083208;28;20055;-69
2023/11/27 00:29:22;;;;;;;9.27;4.53;;;;;;;;;;5083086;28;20066;-69
2023/11/27 00:31:48;;;;;;;12.73;5.53;;;-0.10;98.30;;;;;;5083303;28;20024;-70
2023/11/27 00:34:14;;;;;;;8.48;5.70;;;-0.30;98.30;;;;;;5083171;28;20371;-70
2023/11/27 00:36:40;;;;;;;8.20;5.25;;;;;;;;;;5083229;28;20252;-70
2023/11/27 00:39:09;;;;;;;9.27;5.35;;;;;;;;;;5082946;28;20054;-70
2023/11/27 00:41:35;;;;;;;8.40;5.10;;;-0.30;90.20;;;;;;5083047;28;20259;-70
2023/11/27 00:44:01;;;;;;;10.77;6.45;;;-0.20;91.00;;;;;;5082926;28;20197;-71
2023/11/27 00:46:27;;;;;;;10.55;6.45;;;-0.10;98.80;;;;;;5083217;28;20091;-70
2023/11/27 00:48:53;;;;;;;10.25;7.00;;;;;;;;;;5082946;28;20370;-69
2023/11/27 00:51:19;;;;;;;20.25;8.13;;;-0.70;99.10;;;;;;5081763;28;20239;-70
2023/11/27 00:53:44;;;;;;;9.20;5.88;;;-0.30;99.10;;;;;;5083099;28;20103;-70
2023/11/27 00:56:10;;;;;;;11.80;7.05;;;0.20;93.80;;;;;;5082776;28;20052;-70
2023/11/27 00:58:36;;;;;;;9.73;6.18;;;-0.10;90.90;;;;;;5082639;28;20091;-70
2023/11/27 01:01:02;;;;;;;10.48;6.03;;;-0.20;95.30;;;;;;5082910;28;20096;-70
2023/11/27 01:03:27;;;;;;;9.80;5.80;;;-0.20;99.20;;;;;;5082800;28;20044;-70
2023/11/27 01:05:56;;;;;;;10.73;6.25;;;;;;;;;;5082426;28;20620;-71
2023/11/27 01:08:22;;;;;;;10.48;6.40;;;;;;;;;;5082450;28;20292;-70
2023/11/27 01:10:49;;;;;;;13.43;6.88;;;-0.10;99.20;;;;;;5081199;28;20190;-70
2023/11/27 01:13:15;;;;;;;14.10;7.30;;;0.00;96.70;;;;;;5082715;28;20065;-71
2023/11/27 01:15:41;;;;;;;9.20;5.75;;;0.00;95.10;;;;;;5080988;28;20052;-70
2023/11/27 01:18:07;;;;;;;12.98;6.13;;;;;;;;;;5081297;28;20039;-73
2023/11/27 01:20:33;;;;;;;12.57;6.18;;;0.10;99.00;;;;;;5081069;28;20293;-70
2023/11/27 01:22:59;;;;;;;10.55;6.20;;;0.20;99.00;;;;;;5082341;28;20348;-72
2023/11/27 01:25:25;;;;;;;10.70;6.63;;;;;;;;;;5082632;28;20039;-70
2023/11/27 01:27:51;;;;;;;10.20;5.65;;;0.20;97.40;;;;;;5082064;28;20044;-71
2023/11/27 01:30:18;;;;;;;9.85;5.53;;;;;;;;;;5082420;28;20094;-71
2023/11/27 01:32:45;;;;;;;12.23;5.47;;;0.30;94.20;;;;;;5082319;28;20020;-70
2023/11/27 01:35:11;;;;;;;9.98;5.75;;;;;;;;;;5082178;28;20079;-71
2023/11/27 01:37:36;;;;;;;9.50;5.93;;;0.50;98.70;;;;;;5082191;28;20089;-71
2023/11/27 01:40:03;;;;;;;11.90;6.35;;;0.30;90.20;;;;;;5080855;28;20312;-74
2023/11/27 01:42:28;;;;;;;6.63;5.13;;;0.30;98.90;;;;;;5081969;28;20103;-71
2023/11/27 01:44:54;;;;;;;8.85;5.30;;;0.40;99.00;;;;;;5082055;28;20099;-72
2023/11/27 01:47:20;;;;;;;9.98;5.25;;;;;;;;;;5082165;28;20032;-70
2023/11/27 01:49:46;;;;;;;9.27;5.55;;;0.40;98.70;;;;;;5081864;28;20048;-71
2023/11/27 01:52:15;;;;;;;8.38;5.00;;;0.40;89.90;;;;;;5082163;28;20681;-70
2023/11/27 01:54:41;;;;;;;8.07;4.60;;;0.40;93.10;;;;;;5081769;28;20330;-70
2023/11/27 01:57:15;;;;;;;9.82;5.50;;;0.40;89.90;;;;;;5081545;28;20047;-70
2023/11/27 01:59:53;;;;;;;8.93;5.32;;;0.30;90.00;;;;;;5081721;28;20028;-71
2023/11/27 02:02:19;;;;;;;7.97;5.32;;;0.70;98.90;;;;;;5081607;28;20375;-71
2023/11/27 02:04:45;;;;;;;7.97;4.90;;;;;;;;;;5082111;28;20031;-80
2023/11/27 02:07:14;;;;;;;8.88;5.25;;;0.20;90.20;;;;;;5082432;28;20013;-75
2023/11/27 02:09:40;;;;;;;12.95;5.32;;;;;;;;;;5082124;28;20051;-81
2023/11/27 02:12:06;;;;;;;6.80;4.70;;;;;;;;;;5082497;28;20142;-72
2023/11/27 02:14:31;;;;;;;9.35;5.07;;;0.30;99.30;;;;;;5082035;28;20017;-71
2023/11/27 02:16:57;;;;;;;8.63;5.15;;;0.20;98.90;;;;;;5081739;28;20239;-72
2023/11/27 02:19:23;;;;;;;7.20;4.60;;;;;;;;;;5080204;28;20095;-72
2023/11/27 02:21:49;;;;;;;7.20;4.53;;;0.20;99.30;;;;;;5081227;28;20309;-71
2023/11/27 02:24:15;;;;;;;10.13;5.75;;;0.20;90.40;;;;;;5081190;28;20031;-72
2023/11/27 02:26:41;;;;;;;10.95;6.05;;;0.20;95.80;;;;;;5080916;28;20098;-73
2023/11/27 02:29:07;;;;;;;9.23;5.47;;;0.20;98.90;;;;;;5080998;28;20066;-72
2023/11/27 02:31:34;;;;;;;10.95;5.45;;;;;;;;;;5081069;28;20376;-72
2023/11/27 02:34:00;;;;;;;9.63;5.47;;;0.20;90.40;;;;;;5080957;28;20032;-73
2023/11/27 02:36:27;;;;;;;8.98;5.25;;;0.20;90.60;;;;;;5080818;28;20044;-72
2023/11/27 02:38:53;;;;;;;10.85;5.78;;;;;;;;;;5080820;28;20418;-72
2023/11/27 02:41:19;;;;;;;9.23;5.45;;;0.00;90.60;;;;;;5081035;28;20032;-72
2023/11/27 02:43:45;;;;;;;9.25;5.20;;;;;;;;;;5080831;28;20243;-72
2023/11/27 02:46:13;;;;;;;13.30;5.35;;;0.20;90.80;;;;;;5080818;28;20234;-72
2023/11/27 02:48:39;;;;;;;8.95;5.55;;;;;;;;;;5080753;28;20016;-72
2023/11/27 02:51:05;;;;;;;8.20;5.43;;;0.30;99.30;;;;;;5080787;28;20082;-73
2023/11/27 02:53:32;;;;;;;9.10;5.50;;;0.30;91.10;;;;;;5080571;28;20028;-70
2023/11/27 02:55:58;;;;;;;8.73;5.68;;;0.30;99.80;;;;;;5080677;28;20040;-73
2023/11/27 02:58:24;;;;;;;8.55;5.53;;;0.20;99.90;;;;;;5080723;28;20213;-73
2023/11/27 03:00:50;;;;;;;9.60;5.80;;;;;;;;;;5080715;28;20622;-73
2023/11/27 03:03:16;;;;;;;10.75;5.95;;;;;;;;;;5080453;28;20028;-73
2023/11/27 03:05:42;;;;;;;8.95;5.60;;;0.20;99.90;;;;;;5080406;28;20079;-72
2023/11/27 03:08:08;;;;;;;9.27;4.82;;;0.20;97.20;;;;;;5080407;28;20036;-72
2023/11/27 03:10:34;;;;;;;8.40;5.45;;;0.30;99.90;;;;;;5080390;28;20032;-72
2023/11/27 03:13:00;;;;;;;13.48;6.30;;;;;;;;;;5079346;28;20067;-70
2023/11/27 03:15:25;;;;;;;12.65;6.28;;;0.50;98.50;;;;;;5080586;28;20115;-70
2023/11/27 03:17:51;;;;;;;10.88;5.40;;;0.60;99.90;;;;;;5080438;28;20256;-72
2023/11/27 03:20:17;;;;;;;8.63;5.53;;;;;;;;;;5080369;28;20029;-73
2023/11/27 03:22:43;;;;;;;8.32;5.40;;;0.60;99.90;;;;;;5080442;28;20062;-72
2023/11/27 03:25:09;;;;;;;8.05;5.35;;;0.70;99.90;;;;;;5080612;28;20013;-73
2023/11/27 03:27:38;;;;;;;9.40;5.40;;;;;;;;;;5080748;28;20124;-70
2023/11/27 03:30:05;;;;;;;7.10;5.18;;;0.60;99.90;;;;;;5080454;28;20043;-73
2023/11/27 03:32:31;;;;;;;10.68;5.50;;;;;;;;;;5080134;28;20029;-71
2023/11/27 03:34:59;;;;;;;9.70;5.15;;;0.60;93.70;;;;;;5079421;28;20074;-71
2023/11/27 03:37:25;;;;;;;9.02;5.38;;;;;;;;;;5078542;28;20047;-69
2023/11/27 03:39:51;;;;;;;9.02;5.80;;;0.60;99.00;;;;;;5080270;28;20024;-71
2023/11/27 03:42:16;;;;;;;10.15;5.22;;;0.60;99.90;;;;;;5083384;28;20306;-71
2023/11/27 03:44:42;;;;;;;9.27;5.28;;;;;;;;;;5084570;28;20316;-72
2023/11/27 03:47:08;;;;;;;6.97;4.95;;;0.60;99.90;;;;;;5084256;28;20055;-75
2023/11/27 03:49:34;;;;;;;8.38;5.32;;;;;;;;;;5084109;28;20025;-72
2023/11/27 03:52:01;;;;;;;9.35;5.40;;;;;;;;;;5082829;28;20028;-70
2023/11/27 03:54:27;;;;;;;10.60;5.55;;;0.50;99.90;;;;;;5082731;28;20293;-71
2023/11/27 03:56:52;;;;;;;8.82;6.18;;;0.40;99.90;;;;;;5083841;28;20093;-70
2023/11/27 03:59:19;;;;;;;11.93;5.70;;;0.50;99.90;;;;;;5084110;28;20247;-70
2023/11/27 04:01:45;;;;;;;9.85;5.90;;;;;;;;;;5083928;28;20494;-68
2023/11/27 04:04:12;;;;;;;8.57;5.45;;;;;;;;;;5083856;28;20028;-69
2023/11/27 04:06:38;;;;;;;10.05;5.57;;;0.50;99.40;;;;;;5083831;28;20389;-68
2023/11/27 04:09:04;;;;;;;9.63;5.72;;;0.70;99.90;;;;;;5083767;28;20020;-69
2023/11/27 04:11:31;;;;;;;9.27;6.20;;;;;;;;;;5083817;28;20059;-68
2023/11/27 04:14:00;;;;;;;7.93;5.38;;;0.70;99.90;;;;;;5083927;28;20016;-68
2023/11/27 04:16:26;;;;;;;11.57;5.63;;;;;;;;;;5083473;28;20112;-72
2023/11/27 04:18:52;;;;;;;7.13;4.90;;;0.60;99.90;;;;;;5083778;28;20028;-70
2023/11/27 04:21:18;;;;;;;10.57;5.45;;;0.60;99.90;;;;;;5083735;28;20220;-69
2023/11/27 04:23:45;;;;;;;8.35;5.55;;;0.60;99.90;;;;;;5083420;28;20020;-67
2023/11/27 04:26:12;;;;;;;11.63;6.15;;;;;;;;;;5083425;28;20072;-68
2023/11/27 04:28:41;;;;;;;9.57;5.43;;;0.70;99.90;;;;;;5083375;28;20058;-66
2023/11/27 04:31:08;;;;;;;10.27;6.10;;;0.60;99.90;;;;;;5083247;28;20028;-71
2023/11/27 04:33:34;;;;;;;13.50;7.30;;;0.70;98.40;;;;;;5083577;28;20277;-70
2023/11/27 04:36:01;;;;;;;13.30;7.80;;;0.80;97.70;;;;;;5083064;28;20039;-69
2023/11/27 04:38:27;;;;;;;13.15;8.00;;;;;;;;;;5083356;28;20398;-68
2023/11/27 04:40:53;;;;;;;12.38;6.75;;;;;;;;;;5083172;28;20316;-70
2023/11/27 04:43:18;;;;;;;11.13;7.07;;;0.90;99.90;;;;;;5083165;28;20024;-70
2023/11/27 04:45:44;;;;;;;11.68;5.70;;;;;;;;;;5082912;28;20096;-70
2023/11/27 04:48:10;;;;;;;9.68;5.53;;;;;;;;;;5083038;28;20075;-70
2023/11/27 04:50:36;;;;;;;10.07;6.30;;;1.00;99.90;;;;;;5082836;28;20028;-68
2023/11/27 04:53:02;;;;;;;10.15;6.35;;;;;;;;;;5082923;28;20209;-69
2023/11/27 04:55:28;;;;;;;11.55;6.20;;;;;;;;;;5082706;28;20029;-70
2023/11/27 04:57:53;;;;;;;10.35;5.90;;;0.80;99.90;;;;;;5082975;28;20056;-70
2023/11/27 05:00:19;;;;;;;10.38;6.60;;;;;;;;;;5082782;28;20370;-70
2023/11/27 05:02:45;;;;;;;8.27;5.65;;;0.70;99.90;;;;;;5083021;28;20032;-70
2023/11/27 05:05:14;;;;;;;9.82;6.07;;;0.70;98.70;;;;;;5082527;28;20092;-70
2023/11/27 05:07:40;;;;;;;11.32;5.72;;;1.10;99.10;;;;;;5082862;28;20032;-69
2023/11/27 05:10:07;;;;;;;10.32;5.90;;;;;;;;;;5082747;28;20201;-69
2023/11/27 05:12:33;;;;;;;10.40;5.75;;;0.80;99.90;;;;;;5082507;28;20321;-69
2023/11/27 05:14:59;;;;;;;9.30;5.45;;;0.80;99.90;;;;;;5078402;28;20067;-71
2023/11/27 05:17:25;;;;;;;7.05;5.22;;;0.80;99.90;;;;;;5082646;28;20032;-73
2023/11/27 05:19:51;;;;;;;8.65;6.32;;;0.60;99.90;;;;;;5082908;28;20040;-73
2023/11/27 05:22:18;;;;;;;8.57;5.55;;;;;;;;;;5071634;28;20336;-74
2023/11/27 05:24:44;;;;;;;9.13;5.53;;;0.90;99.90;;;;;;5076094;28;20031;-73
2023/11/27 05:27:10;;;;;;;14.48;5.65;;;;;;;;;;5082304;28;20374;-73
2023/11/27 05:29:35;;;;;;;7.68;4.80;;;1.00;99.90;;;;;;5082691;28;20031;-73
2023/11/27 05:32:07;;;;;;;8.77;5.65;;;;;;;;;;5081406;28;20051;-72
2023/11/27 05:34:36;;;;;;;8.70;5.57;;;0.90;99.90;;;;;;5082488;28;20035;-74
2023/11/27 05:37:03;;;;;;;7.93;5.53;;;1.00;99.90;;;;;;5082173;28;20032;-71
2023/11/27 05:39:29;;;;;;;10.45;5.85;;;1.10;99.90;;;;;;5082199;28;20204;-72
2023/11/27 05:41:57;;;;;;;8.93;5.80;;;;;;;;;;5082298;28;20030;-71
2023/11/27 05:44:27;;;;;;;9.13;5.80;;;1.20;99.00;;;;;;5081939;28;20055;-72
2023/11/27 05:46:52;;;;;;;;;;;1.30;99.20;;;;;;5082671;28;20042;-72
2023/11/27 05:49:18;;;;;;;8.43;6.10;;;0.90;99.90;;;;;;5081882;28;20247;-71
2023/11/27 05:51:45;;;;;;;17.20;9.60;;;1.30;99.90;;;;;;5082097;28;20100;-71
2023/11/27 05:54:13;;;;;;;18.83;10.15;;;1.40;99.90;;;;;;5081989;28;20028;-72
2023/11/27 05:56:39;;;;;;;22.40;10.20;;;1.20;99.90;;;;;;5081516;28;20781;-71
2023/11/27 05:59:04;;;;;;;15.75;8.52;;;1.40;99.90;;;;;;5081124;28;20017;-71
2023/11/27 06:01:31;;;;;;;16.38;9.23;;;1.40;98.50;;;;;;5081681;28;20036;-71
2023/11/27 06:03:56;;;;;;;21.17;11.63;;;1.70;99.90;;;;;;5080617;28;20025;-71
2023/11/27 06:06:22;;;;;;;18.60;10.05;;;1.40;99.90;;;;;;5081191;28;20087;-71
2023/11/27 06:08:48;;;;;;;21.50;10.18;;;1.80;99.90;;;;;;5080499;28;20033;-71
2023/11/27 06:11:14;;;;;;;20.35;9.77;;;;;;;;;;5080992;28;20374;-71
2023/11/27 06:13:41;;;;;;;11.52;6.78;;;;;;;;;;5079768;28;20374;-70
2023/11/27 06:16:08;;;;;;;12.10;6.63;;;1.40;99.00;;;;;;5077912;28;20055;-71
2023/11/27 06:18:34;;;;;;;10.77;6.50;;;1.50;99.90;;;;;;5079506;28;20066;-72
2023/11/27 06:21:00;;;;;;;9.90;6.30;;;;;;;;;;5080915;28;20034;-72
2023/11/27 06:23:26;;;;;;;12.32;5.95;;;;;;;;;;5081346;28;20033;-71
2023/11/27 06:25:52;;;;;;;10.48;6.32;;;;;;;;;;5080122;28;20035;-71
2023/11/27 06:28:18;;;;;;;11.00;6.57;;;1.90;99.90;;;;;;5078859;28;20036;-72
2023/11/27 06:30:44;;;;;;;8.50;5.82;;;1.70;99.90;;;;;;5080972;28;20285;-72
2023/11/27 06:33:10;;;;;;;17.63;9.45;;;;;;;;;;5072589;28;20056;-71
2023/11/27 06:35:35;;;;;;;20.83;11.15;;;1.70;99.90;;;;;;5060079;28;20048;-71
2023/11/27 06:38:04;;;;;;;33.45;17.98;;;1.80;99.90;;;;;;5060846;28;20300;-71
2023/11/27 06:40:30;;;;;;;18.65;10.70;;;;;;;;;;5060644;28;20459;-72
2023/11/27 06:42:56;;;;;;;18.05;10.75;;;;;;;;;;5060734;28;20178;-71
2023/11/27 06:45:22;;;;;;;16.80;8.93;;;1.60;99.10;;;;;;5075524;28;20028;-71
2023/11/27 06:47:48;;;;;;;12.85;8.10;;;1.70;99.90;;;;;;5080699;28;20092;-71
2023/11/27 06:50:14;;;;;;;15.65;9.18;;;1.70;99.90;;;;;;5080883;28;20025;-71
2023/11/27 06:52:41;;;;;;;12.35;7.97;;;1.70;99.40;;;;;;5080957;28;20097;-71
2023/11/27 06:55:09;;;;;;;11.70;7.40;;;;;;;;;;5080785;28;20029;-72
2023/11/27 06:57:35;;;;;;;10.63;6.60;;;;;;;;;;5080618;28;20040;-71
2023/11/27 07:00:02;;;;;;;9.73;6.90;;;1.80;99.30;;;;;;5080764;28;20021;-72
2023/11/27 07:02:30;;;;;;;15.75;8.35;;;;;;;;;;5079952;28;20020;-71
2023/11/27 07:04:57;;;;;;;14.13;8.00;;;2.00;99.90;;;;;;5080386;28;20048;-71
2023/11/27 07:07:23;;;;;;;10.55;7.05;;;;;;;;;;5079305;28;20315;-72
2023/11/27 07:09:49;;;;;;;10.18;6.88;;;1.80;99.90;;;;;;5078555;28;20305;-71
2023/11/27 07:12:17;;;;;;;10.10;6.30;;;;;;;;;;5077300;28;20033;-72
2023/11/27 07:14:43;;;;;;;13.13;7.22;;;;;;;;;;5080401;28;20020;-72
2023/11/27 07:17:09;;;;;;;10.27;6.22;;;;;;;;;;5079501;28;20036;-71
2023/11/27 07:19:35;;;;;;;8.40;5.57;;;;;;;;;;5080437;28;20369;-70
2023/11/27 07:22:02;;;;;;;8.60;6.38;;;1.90;99.90;;;;;;5080359;28;20037;-74
2023/11/27 07:24:27;;;;;;;13.25;7.68;;;2.00;99.90;;;;;;5080329;28;20043;-71
2023/11/27 07:26:54;;;;;;;10.35;6.72;;;1.90;99.90;;;;;;5079986;28;20252;-72
2023/11/27 07:29:20;;;;;;;11.70;6.05;;;;;;;;;;5080173;28;20016;-72
2023/11/27 07:31:46;;;;;;;11.95;6.50;;;;;;;;;;5080427;28;20028;-72
2023/11/27 07:34:13;;;;;;;12.45;7.50;;;1.80;99.90;;;;;;5080205;28;20020;-72
2023/11/27 07:36:38;;;;;;;13.73;8.07;;;2.10;99.90;;;;;;5080287;28;20046;-72
2023/11/27 07:39:07;;;;;;;11.40;6.60;;;2.10;99.90;;;;;;5080170;28;20016;-72
2023/11/27 07:41:36;;;;;;;12.87;6.97;;;2.40;99.90;;;;;;5080207;28;20032;-72
2023/11/27 07:44:02;;;;;;;12.18;6.45;;;2.20;99.00;;;;;;5080130;28;20328;-70
2023/11/27 07:46:28;;;;;;;10.88;6.60;;;;;;;;;;5078721;28;20024;-72
2023/11/27 07:48:54;;;;;;;9.65;5.95;;;;;;;;;;5079237;28;20034;-73
2023/11/27 07:51:21;;;;;;;11.07;6.18;;;;;;;;;;5079988;28;20025;-72
2023/11/27 07:53:47;;;;;;;15.18;8.68;;;;;;;;;;5079968;28;20363;-72
2023/11/27 07:56:23;;;;;;;13.27;8.40;;;2.10;99.90;;;;;;5079822;28;20035;-73
2023/11/27 07:58:49;;;;;;;17.83;9.10;;;;;;;;;;5079004;28;20052;-72
2023/11/27 08:01:16;;;;;;;16.45;9.45;;;2.00;99.90;;;;;;5080186;28;20024;-72
2023/11/27 08:03:42;;;;;;;15.25;9.32;;;2.20;99.90;;;;;;5079935;28;20087;-72
2023/11/27 08:06:09;;;;;;;12.15;6.97;;;1.90;99.90;;;;;;5078686;28;20339;-71
2023/11/27 08:08:35;;;;;;;11.40;6.57;;;1.90;99.90;;;;;;5080076;28;20028;-73
2023/11/27 08:11:02;;;;;;;11.48;6.90;;;2.00;99.90;;;;;;5079909;28;20316;-70
2023/11/27 08:13:29;;;;;;;11.32;7.38;;;;;;;;;;5079823;28;20348;-70
2023/11/27 08:15:57;;;;;;;13.70;8.55;;;1.80;99.90;;;;;;5080092;28;20103;-71
2023/11/27 08:18:24;;;;;;;14.45;9.18;;;;;;;;;;5079708;28;20126;-70
2023/11/27 08:20:50;;;;;;;15.35;8.68;;;1.80;99.90;;;;;;5079814;28;20056;-71
2023/11/27 08:23:16;;;;;;;17.27;10.52;;;;;;;;;;5079751;28;20245;-70
2023/11/27 08:25:44;;;;;;;16.00;9.25;;;;;;;;;;5079697;28;20043;-70
2023/11/27 08:28:10;;;;;;;17.38;8.93;;;;;;;;;;5082160;28;20461;-70
2023/11/27 08:30:36;;;;;;;12.15;7.15;;;1.80;99.90;;;;;;5083670;28;20091;-70
2023/11/27 08:33:02;;;;;;;13.23;7.05;;;;;;;;;;5083457;28;20318;-70
2023/11/27 08:35:29;;;;;;;13.25;6.97;;;1.70;99.90;;;;;;5083313;28;20233;-73
2023/11/27 08:37:55;;;;;;;13.13;7.43;;;;;;;;;;5083389;28;20043;-71
2023/11/27 08:40:21;;;;;;;12.68;7.60;;;1.90;99.90;;;;;;5083152;28;20309;-70
2023/11/27 08:42:47;;;;;;;11.95;7.25;;;1.80;99.90;;;;;;5082879;28;20087;-71
2023/11/27 08:45:16;;;;;;;10.45;6.78;;;;;;;;;;5083097;28;20020;-71
2023/11/27 08:47:50;;;;;;;9.95;6.47;;;2.00;99.90;;;;;;5083474;28;20033;-71
2023/11/27 08:50:17;;;;;;;9.27;5.75;;;2.10;99.90;;;;;;5083158;28;20096;-72
2023/11/27 08:52:45;;;;;;;9.77;6.03;;;2.10;99.90;;;;;;5083147;28;20055;-71
2023/11/27 08:55:18;;;;;;;11.10;6.18;;;2.20;99.90;;;;;;5075348;28;20020;-71
2023/11/27 08:57:44;;;;;;;10.38;6.30;;;;;;;;;;5081606;28;20033;-71
2023/11/27 09:00:14;;;;;;;11.23;5.85;;;2.10;99.90;;;;;;5081717;28;20044;-71
2023/11/27 09:02:40;;;;;;;14.13;7.97;;;;;;;;;;5082712;28;20079;-71
2023/11/27 09:05:06;;;;;;;11.73;7.40;;;2.20;99.90;;;;;;5081411;28;20031;-72
2023/11/27 09:07:32;;;;;;;10.93;6.82;;;2.00;99.90;;;;;;5082930;28;20090;-70
2023/11/27 09:09:57;;;;;;;12.75;7.05;;;2.00;99.90;;;;;;5083057;28;20250;-70
2023/11/27 09:12:23;;;;;;;10.60;6.78;;;;;;;;;;5082874;28;20028;-71
2023/11/27 09:14:49;;;;;;;16.17;7.68;;;2.20;99.90;;;;;;5082800;28;20356;-71
2023/11/27 09:17:15;;;;;;;15.15;8.05;;;2.20;99.90;;;;;;5081064;28;20113;-71
2023/11/27 09:19:41;;;;;;;23.92;9.35;;;;;;;;;;5082716;28;20077;-71
2023/11/27 09:22:06;;;;;;;13.00;5.78;;;2.20;99.90;;;;;;5074574;28;20220;-72
2023/11/27 09:24:32;;;;;;;9.35;5.05;;;2.40;99.90;;;;;;5082807;28;20031;-71
2023/11/27 09:26:59;;;;;;;10.73;5.63;;;2.40;99.90;;;;;;5079448;28;20063;-70
2023/11/27 09:29:26;;;;;;;8.00;4.93;;;;;;;;;;5081364;28;20467;-71
2023/11/27 09:31:52;;;;;;;6.53;4.05;;;2.40;99.90;;;;;;5082536;28;20024;-70
2023/11/27 09:34:18;;;;;;;5.68;3.53;;;2.40;99.90;;;;;;5082339;28;20306;-70
2023/11/27 09:36:43;;;;;;;7.07;4.43;;;2.40;99.90;;;;;;5082347;28;20275;-72
2023/11/27 09:39:11;;;;;;;9.18;4.65;;;2.20;99.90;;;;;;5081563;28;20028;-70
2023/11/27 09:41:37;;;;;;;7.05;4.18;;;2.10;99.90;;;;;;5076272;28;20081;-70
2023/11/27 09:44:04;;;;;;;6.60;4.28;;;2.30;99.90;;;;;;5082271;28;20276;-71
2023/11/27 09:46:31;;;;;;;7.07;5.43;;;2.40;99.90;;;;;;5080629;28;20028;-70
2023/11/27 09:49:02;;;;;;;9.07;5.40;;;2.20;99.90;;;;;;5081841;28;20339;-75
2023/11/27 09:51:33;;;;;;;9.40;5.32;;;2.30;99.90;;;;;;5079200;28;20016;-73
2023/11/27 09:54:02;;;;;;;10.98;5.30;;;2.30;99.90;;;;;;5082021;28;20024;-78
2023/11/27 09:56:29;;;;;;;9.18;5.50;;;2.40;99.90;;;;;;5079000;28;20309;-72
2023/11/27 09:58:59;;;;;;;7.72;4.65;;;;;;;;;;5081877;28;20316;-71
2023/11/27 10:01:27;;;;;;;;;;;2.50;99.90;;;;;;5082341;28;20043;-70
2023/11/27 10:03:58;;;;;;;8.15;4.55;;;2.40;99.90;;;;;;5082279;28;19900;-71
2023/11/27 10:06:41;;;;;;;10.55;4.22;;;2.40;99.90;;;;;;5081812;28;20321;-71
2023/11/27 10:09:14;;;;;;;8.57;4.40;;;2.20;99.90;;;;;;5081282;28;20067;-70
2023/11/27 10:11:41;;;;;;;9.05;4.95;;;;;;;;;;5081465;28;20115;-71
2023/11/27 10:14:10;;;;;;;7.25;4.43;;;2.10;99.90;;;;;;5081418;28;20032;-71
2023/11/27 10:16:36;;;;;;;;;;;2.30;99.90;;;;;;5081510;28;20047;-71
2023/11/27 10:19:06;;;;;;;11.70;4.72;;;2.20;99.90;;;;;;5081124;28;20201;-70
2023/11/27 10:21:41;;;;;;;9.25;4.88;;;2.30;99.90;;;;;;5079108;28;20019;-70
2023/11/27 10:24:11;;;;;;;7.75;4.82;;;;;;;;;;5078403;28;20016;-71
2023/11/27 10:26:40;;;;;;;7.45;4.15;;;2.30;99.90;;;;;;5081126;28;20358;-71
2023/11/27 10:29:06;;;;;;;6.80;4.60;;;;;;;;;;5081280;28;20056;-71
2023/11/27 10:31:33;;;;;;;7.97;4.93;;;2.20;99.90;;;;;;5081332;28;20025;-71
2023/11/27 10:33:59;;;;;;;8.73;4.85;;;;;;;;;;5081383;28;20304;-70
2023/11/27 10:36:26;;;;;;;9.95;5.13;;;2.30;99.90;;;;;;5081277;28;20032;-70
2023/11/27 10:39:25;;;;;;;7.72;4.82;;;2.00;99.90;;;;;;5081155;28;20380;-70
2023/11/27 10:41:55;;;;;;;8.05;4.90;;;2.80;99.90;;;;;;5079905;28;20066;-70
2023/11/27 10:44:25;;;;;;;11.60;5.78;;;2.30;99.90;;;;;;5081238;28;20016;-70
2023/11/27 10:46:52;;;;;;;;;;;2.40;99.90;;;;;;5081374;28;20346;-70
2023/11/27 10:49:19;;;;;;;7.85;5.00;;;2.30;99.90;;;;;;5081268;28;19906;-70
2023/11/27 10:51:45;;;;;;;7.60;4.60;;;2.40;99.90;;;;;;5080900;28;20016;-71
2023/11/27 10:54:14;;;;;;;8.77;4.47;;;2.40;99.90;;;;;;5079286;28;20028;-70
2023/11/27 10:56:46;;;;;;;;;;;2.40;99.90;;;;;;5078346;28;20020;-70
2023/11/27 10:59:17;;;;;;;12.05;6.35;;;2.50;99.90;;;;;;5080845;28;19922;-71
2023/11/27 11:01:46;;;;;;;9.68;5.95;;;2.50;99.90;;;;;;5078890;28;20047;-71
2023/11/27 11:04:16;;;;;;;7.55;4.95;;;2.40;99.90;;;;;;5079132;28;20028;-71
2023/11/27 11:06:46;;;;;;;7.32;5.05;;;2.60;99.90;;;;;;5079902;28;20039;-71
2023/11/27 11:09:16;;;;;;;5.88;4.43;;;2.70;99.90;;;;;;5080535;28;20048;-71
2023/11/27 11:11:49;;;;;;;7.20;4.53;;;2.70;99.90;;;;;;5079778;28;20043;-70
2023/11/27 11:14:16;;;;;;;6.70;4.60;;;2.90;99.90;;;;;;5080558;28;20031;-74
2023/11/27 11:17:12;;;;;;;7.53;4.45;;;3.00;99.90;;;;;;5080471;28;20344;-71
2023/11/27 11:19:50;;;;;;;5.45;4.10;;;3.20;99.90;;;;;;5080682;28;20012;-70
2023/11/27 11:22:30;;;;;;;7.80;4.57;;;3.30;99.90;;;;;;5080819;28;20704;-71
2023/11/27 11:25:03;;;;;;;8.20;3.85;;;3.50;99.90;;;;;;5080561;28;20027;-71
2023/11/27 11:27:39;;;;;;;6.68;4.43;;;3.40;99.90;;;;;;5080527;28;20048;-71
2023/11/27 11:30:06;;;;;;;5.28;3.83;;;3.70;99.90;;;;;;5076928;28;20028;-73
2023/11/27 11:32:32;;;;;;;5.88;4.03;;;;;;;;;;5079194;28;20028;-71
2023/11/27 11:35:02;;;;;;;11.18;4.35;;;3.40;99.90;;;;;;5080467;28;20039;-71
2023/11/27 11:37:29;;;;;;;7.43;3.88;;;3.30;99.90;;;;;;5080570;28;20038;-71
2023/11/27 11:39:56;;;;;;;4.65;3.75;;;3.40;99.90;;;;;;5080257;28;20032;-71
2023/11/27 11:42:29;;;;;;;6.68;4.07;;;3.70;99.90;;;;;;5079842;28;20065;-71
2023/11/27 11:45:14;;;;;;;9.48;4.13;;;3.60;99.90;;;;;;5079900;28;20021;-71
2023/11/27 11:47:42;;;;;;;9.55;4.50;;;;;;;;;;5079536;28;20036;-71
2023/11/27 11:50:25;;;;;;;12.75;5.82;;;3.80;99.90;;;;;;5079783;28;20023;-71
2023/11/27 11:52:53;;;;;;;7.72;5.57;;;3.70;99.90;;;;;;5078102;28;20054;-71
2023/11/27 11:55:32;;;;;;;12.88;6.05;;;3.80;99.90;;;;;;5080018;28;20024;-71
2023/11/27 11:58:14;;;;;;;10.48;5.53;;;4.00;99.90;;;;;;5080206;28;20071;-71
2023/11/27 12:00:42;;;;;;;11.88;5.25;;;3.90;99.90;;;;;;5078859;28;20017;-72
2023/11/27 12:03:16;;;;;;;14.18;5.93;;;4.60;99.90;;;;;;5082721;28;20016;-71
2023/11/27 12:05:50;;;;;;;12.50;5.68;;;4.50;99.90;;;;;;5084146;28;20020;-72
2023/11/27 12:08:25;;;;;;;12.05;5.05;;;4.40;99.90;;;;;;5082106;28;20028;-74
2023/11/27 12:10:53;;;;;;;9.88;6.05;;;4.50;99.90;;;;;;5080777;28;20031;-72
2023/11/27 12:13:33;;;;;;;7.38;5.10;;;4.40;99.90;;;;;;5083290;28;20197;-71
2023/11/27 12:16:07;;;;;;;6.40;3.80;;;4.60;99.90;;;;;;5080878;28;20036;-72
2023/11/27 12:18:33;;;;;;;7.25;4.85;;;4.60;99.90;;;;;;5083807;28;20252;-71
2023/11/27 12:21:04;;;;;;;6.85;4.43;;;;;;;;;;5083669;28;20020;-74
2023/11/27 12:23:38;;;;;;;8.40;4.55;;;4.60;99.90;;;;;;5083564;28;20016;-71
2023/11/27 12:26:09;;;;;;;9.57;6.28;;;;;;;;;;5083472;28;20317;-71
2023/11/27 12:28:36;;;;;;;9.00;6.68;;;;;;;;;;5083788;28;20040;-71
2023/11/27 12:31:03;;;;;;;10.50;6.88;;;4.70;99.90;;;;;;5083628;28;20393;-71
2023/11/27 12:33:29;;;;;;;7.03;5.15;;;4.70;99.90;;;;;;5083494;28;20024;-70
2023/11/27 12:35:55;;;;;;;11.40;7.50;;;;;;;;;;5082815;28;20103;-71
2023/11/27 12:38:24;;;;;;;10.00;6.15;;;;;;;;;;5082976;28;20317;-71
2023/11/27 12:40:51;;;;;;;8.90;5.35;;;4.50;99.90;;;;;;5079383;28;20016;-72
2023/11/27 12:43:18;;;;;;;6.57;4.70;;;4.40;99.90;;;;;;5082956;28;20055;-71
2023/11/27 12:45:46;;;;;;;12.57;6.50;;;4.90;99.90;;;;;;5083278;28;20096;-72
2023/11/27 12:48:12;;;;;;;14.50;8.00;;;;;;;;;;5083237;28;20221;-73
2023/11/27 12:50:39;;;;;;;14.40;7.38;;;4.50;99.90;;;;;;5083442;28;20020;-73
2023/11/27 12:53:07;;;;;;;13.95;6.65;;;4.50;99.90;;;;;;5083454;28;20361;-73
2023/11/27 12:55:37;;;;;;;10.07;5.82;;;4.50;99.90;;;;;;5083077;28;20021;-73
2023/11/27 12:58:11;;;;;;;8.93;5.38;;;4.50;99.90;;;;;;5082874;28;20074;-72
2023/11/27 13:00:43;;;;;;;8.35;4.38;;;4.70;99.90;;;;;;5082863;28;20020;-74
2023/11/27 13:03:19;;;;;;;9.20;4.20;;;4.50;99.90;;;;;;5082889;28;20100;-72
2023/11/27 13:05:59;;;;;;;9.90;4.80;;;4.70;99.90;;;;;;5082911;28;20067;-72
2023/11/27 13:08:26;;;;;;;9.02;5.18;;;;;;;;;;5082739;28;20366;-72
2023/11/27 13:10:57;;;;;;;7.78;5.22;;;5.30;98.70;;;;;;5082760;28;20036;-72
2023/11/27 13:13:25;;;;;;;6.45;4.57;;;5.70;99.90;;;;;;5081666;28;20070;-72
2023/11/27 13:15:53;;;;;;;5.95;3.85;;;6.30;97.20;;;;;;5082613;28;20209;-71
2023/11/27 13:18:19;;;;;;;6.10;4.15;;;8.30;99.90;;;;;;5082594;28;20036;-72
2023/11/27 13:20:48;;;;;;;6.90;4.82;;;8.70;91.90;;;;;;5081973;28;20125;-72
2023/11/27 13:23:16;;;;;;;5.95;4.40;;;8.80;91.20;;;;;;5082225;28;20028;-72